createdAt,value
2018-06-19T00:02:15.773Z,22.70
2018-06-19T00:04:44.207Z,25.03
2018-06-19T00:07:12.539Z,24.47
2018-06-19T00:09:41.658Z,24.80
2018-06-19T00:12:10.096Z,24.67
2018-06-19T00:14:38.473Z,27.33
2018-06-19T00:17:06.947Z,27.30
2018-06-19T00:19:35.609Z,23.17
2018-06-19T00:22:04.718Z,23.77
2018-06-19T00:24:33.244Z,24.33
2018-06-19T00:27:01.605Z,25.37
2018-06-19T00:29:30.253Z,28.13
2018-06-19T00:31:58.633Z,26.83
2018-06-19T00:34:27.002Z,26.23
2018-06-19T00:36:55.376Z,25.47
2018-06-19T00:39:23.758Z,24.20
2018-06-19T00:41:52.109Z,24.43
2018-06-19T00:44:20.515Z,24.50
2018-06-19T00:46:48.869Z,23.27
2018-06-19T00:49:17.270Z,23.53
2018-06-19T00:51:45.672Z,27.03
2018-06-19T00:54:14.010Z,26.07
2018-06-19T00:56:48.344Z,26.57
2018-06-19T00:59:16.850Z,28.30
2018-06-19T01:01:45.289Z,27.53
2018-06-19T01:04:13.633Z,26.17
2018-06-19T01:06:42.018Z,25.37
2018-06-19T01:09:10.354Z,24.10
2018-06-19T01:11:38.715Z,26.70
2018-06-19T01:14:07.112Z,22.53
2018-06-19T01:16:35.592Z,22.60
2018-06-19T01:19:03.959Z,24.97
2018-06-19T01:21:32.313Z,24.23
2018-06-19T01:24:02.147Z,26.73
2018-06-19T01:26:30.602Z,23.83
2018-06-19T01:28:59.932Z,27.47
2018-06-19T01:31:28.286Z,26.50
2018-06-19T01:33:56.724Z,29.53
2018-06-19T01:36:25.067Z,26.80
2018-06-19T01:38:53.482Z,25.80
2018-06-19T01:41:21.961Z,28.63
2018-06-19T01:43:50.273Z,28.87
2018-06-19T01:46:18.718Z,26.73
2018-06-19T01:48:47.061Z,30.70
2018-06-19T01:51:15.411Z,28.13
2018-06-19T01:53:43.894Z,27.50
2018-06-19T01:56:12.334Z,27.23
2018-06-19T01:58:40.666Z,31.70
2018-06-19T02:01:09.782Z,27.33
2018-06-19T02:03:38.154Z,28.50
2018-06-19T02:06:06.603Z,27.27
2018-06-19T02:08:35.037Z,27.23
2018-06-19T02:11:03.414Z,26.73
2018-06-19T02:13:31.902Z,28.53
2018-06-19T02:16:00.386Z,28.07
2018-06-19T02:18:29.557Z,26.20
2018-06-19T02:20:57.958Z,26.97
2018-06-19T02:23:26.339Z,28.23
2018-06-19T02:25:54.735Z,26.53
2018-06-19T02:28:23.103Z,28.07
2018-06-19T02:30:51.453Z,26.20
2018-06-19T02:33:20.696Z,29.07
2018-06-19T02:35:49.073Z,28.90
2018-06-19T02:38:17.422Z,29.33
2018-06-19T02:40:46.721Z,28.40
2018-06-19T02:43:15.071Z,26.10
2018-06-19T02:45:44.215Z,29.00
2018-06-19T02:48:12.564Z,26.07
2018-06-19T02:50:41.798Z,26.23
2018-06-19T02:53:10.194Z,24.73
2018-06-19T02:55:38.650Z,26.40
2018-06-19T02:58:07.133Z,24.47
2018-06-19T03:00:35.798Z,24.10
2018-06-19T03:03:04.987Z,26.60
2018-06-19T03:05:34.156Z,23.57
2018-06-19T03:08:02.594Z,23.60
2018-06-19T03:10:30.976Z,22.50
2018-06-19T03:12:59.471Z,23.67
2018-06-19T03:15:27.832Z,24.30
2018-06-19T03:17:56.326Z,21.67
2018-06-19T03:20:24.730Z,22.20
2018-06-19T03:22:53.282Z,21.67
2018-06-19T03:25:21.658Z,22.70
2018-06-19T03:27:50.035Z,20.03
2018-06-19T03:30:18.414Z,20.17
2018-06-19T03:32:46.756Z,22.53
2018-06-19T03:35:15.179Z,20.53
2018-06-19T03:37:43.538Z,21.77
2018-06-19T03:40:11.890Z,21.33
2018-06-19T03:42:40.421Z,21.10
2018-06-19T03:45:08.773Z,22.20
2018-06-19T03:47:38.309Z,20.20
2018-06-19T03:50:06.674Z,21.73
2018-06-19T03:52:35.230Z,20.20
2018-06-19T03:55:03.714Z,19.90
2018-06-19T03:57:32.400Z,20.03
2018-06-19T04:00:01.059Z,21.93
2018-06-19T04:02:29.504Z,20.37
2018-06-19T04:04:58.377Z,18.93
2018-06-19T04:07:27.924Z,20.57
2018-06-19T04:09:56.673Z,22.40
2018-06-19T04:12:25.275Z,19.97
2018-06-19T04:14:53.778Z,19.80
2018-06-19T04:17:22.244Z,17.90
2018-06-19T04:19:51.563Z,18.97
2018-06-19T04:22:19.973Z,16.70
2018-06-19T04:24:48.505Z,17.70
2018-06-19T04:27:17.358Z,20.07
2018-06-19T04:29:46.585Z,18.37
2018-06-19T04:32:15.130Z,18.13
2018-06-19T04:34:43.817Z,21.60
2018-06-19T04:37:13.252Z,18.37
2018-06-19T04:39:42.479Z,17.33
2018-06-19T04:42:11.822Z,17.30
2018-06-19T04:44:40.349Z,19.03
2018-06-19T04:47:08.931Z,18.33
2018-06-19T04:49:37.677Z,20.13
2018-06-19T04:52:06.361Z,17.97
2018-06-19T04:54:34.792Z,21.83
2018-06-19T04:57:03.282Z,20.47
2018-06-19T04:59:31.958Z,19.10
2018-06-19T05:02:00.309Z,19.47
2018-06-19T05:04:28.850Z,18.00
2018-06-19T05:06:57.581Z,17.87
2018-06-19T05:09:26.074Z,17.20
2018-06-19T05:11:55.258Z,18.00
2018-06-19T05:14:24.777Z,17.17
2018-06-19T05:16:53.209Z,17.13
2018-06-19T05:19:21.856Z,17.63
2018-06-19T05:21:50.387Z,18.17
2018-06-19T05:24:18.720Z,17.60
2018-06-19T05:26:47.156Z,15.90
2018-06-19T05:29:16.305Z,16.90
2018-06-19T05:31:44.808Z,17.47
2018-06-19T05:34:13.327Z,19.30
2018-06-19T05:36:42.275Z,14.40
2018-06-19T05:39:11.038Z,14.80
2018-06-19T05:41:39.461Z,16.73
2018-06-19T05:44:07.884Z,13.57
2018-06-19T05:46:37.002Z,13.43
2018-06-19T05:49:05.585Z,11.77
2018-06-19T05:51:34.149Z,18.17
2018-06-19T05:54:02.855Z,13.93
2018-06-19T05:56:31.388Z,12.77
2018-06-19T05:59:00.787Z,14.20
2018-06-19T06:01:29.516Z,12.43
2018-06-19T06:03:58.775Z,11.77
2018-06-19T06:06:27.446Z,13.87
2018-06-19T06:08:55.937Z,11.77
2018-06-19T06:11:24.284Z,10.07
2018-06-19T06:13:52.771Z,13.10
2018-06-19T06:16:21.580Z,9.27
2018-06-19T06:18:49.902Z,14.43
2018-06-19T06:21:19.130Z,10.43
2018-06-19T06:23:47.559Z,13.13
2018-06-19T06:26:15.993Z,10.57
2018-06-19T06:28:44.475Z,12.27
2018-06-19T06:31:13.000Z,7.83
2018-06-19T06:33:43.368Z,8.93
2018-06-19T06:36:12.486Z,10.07
2018-06-19T06:38:40.867Z,12.10
2018-06-19T06:41:09.194Z,7.93
2018-06-19T06:43:38.671Z,9.20
2018-06-19T06:46:07.004Z,12.67
2018-06-19T06:48:35.386Z,8.10
2018-06-19T06:51:03.762Z,8.63
2018-06-19T06:53:32.126Z,8.23
2018-06-19T06:56:01.268Z,6.10
2018-06-19T06:58:29.588Z,9.43
2018-06-19T07:00:57.934Z,6.97
2018-06-19T07:03:26.357Z,7.57
2018-06-19T07:05:55.493Z,10.07
2018-06-19T07:08:23.858Z,7.70
2018-06-19T07:10:52.313Z,6.83
2018-06-19T07:13:21.416Z,6.03
2018-06-19T07:15:50.573Z,8.20
2018-06-19T07:18:18.938Z,8.03
2018-06-19T07:20:47.384Z,5.77
2018-06-19T07:23:15.800Z,8.57
2018-06-19T07:25:44.146Z,8.07
2018-06-19T07:28:12.512Z,11.63
2018-06-19T07:30:41.675Z,6.57
2018-06-19T07:33:10.050Z,8.17
2018-06-19T07:35:38.424Z,6.07
2018-06-19T07:38:06.898Z,6.90
2018-06-19T07:40:35.221Z,7.53
2018-06-19T07:43:04.327Z,7.23
2018-06-19T07:45:34.284Z,5.62
2018-06-19T07:48:02.674Z,8.07
2018-06-19T07:50:31.126Z,7.33
2018-06-19T07:52:59.575Z,9.80
2018-06-19T07:55:28.753Z,9.17
2018-06-19T07:57:57.185Z,9.70
2018-06-19T08:00:25.589Z,9.83
2018-06-19T08:02:53.937Z,9.17
2018-06-19T08:05:22.265Z,7.90
2018-06-19T08:07:50.642Z,9.03
2018-06-19T08:10:20.015Z,9.30
2018-06-19T08:12:48.413Z,7.67
2018-06-19T08:15:16.755Z,9.43
2018-06-19T08:17:45.123Z,7.00
2018-06-19T08:20:14.234Z,8.87
2018-06-19T08:22:42.584Z,8.47
2018-06-19T08:25:11.726Z,12.83
2018-06-19T08:27:40.059Z,7.17
2018-06-19T08:30:08.404Z,8.60
2018-06-19T08:32:36.775Z,10.27
2018-06-19T08:35:05.143Z,6.37
2018-06-19T08:37:33.506Z,9.17
2018-06-19T08:40:01.854Z,8.00
2018-06-19T08:42:30.971Z,8.23
2018-06-19T08:44:59.314Z,8.50
2018-06-19T08:47:27.691Z,11.27
2018-06-19T08:49:56.127Z,8.23
2018-06-19T08:52:24.522Z,7.43
2018-06-19T08:54:52.877Z,8.55
2018-06-19T08:57:21.258Z,11.20
2018-06-19T08:59:49.705Z,8.95
2018-06-19T09:02:18.182Z,8.60
2018-06-19T09:04:46.557Z,9.80
2018-06-19T09:07:15.678Z,10.82
2018-06-19T09:09:44.956Z,7.70
2018-06-19T09:12:13.303Z,10.98
2018-06-19T09:14:41.649Z,8.65
2018-06-19T09:17:10.003Z,11.85
2018-06-19T09:19:39.169Z,10.50
2018-06-19T09:22:07.639Z,10.48
2018-06-19T09:24:35.974Z,7.32
2018-06-19T09:27:05.196Z,9.55
2018-06-19T09:29:33.618Z,9.82
2018-06-19T09:32:02.168Z,9.43
2018-06-19T09:34:30.514Z,9.25
2018-06-19T09:36:59.622Z,10.90
2018-06-19T09:39:28.020Z,11.18
2018-06-19T09:41:56.390Z,11.85
2018-06-19T09:44:24.780Z,13.10
2018-06-19T09:46:53.115Z,13.55
2018-06-19T09:49:22.255Z,11.98
2018-06-19T09:51:50.610Z,12.07
2018-06-19T09:54:18.975Z,9.38
2018-06-19T09:56:48.203Z,12.32
2018-06-19T09:59:16.620Z,9.02
2018-06-19T10:01:44.981Z,10.80
2018-06-19T10:04:13.342Z,12.90
2018-06-19T10:06:41.667Z,13.25
2018-06-19T10:09:10.100Z,15.63
2018-06-19T10:11:38.447Z,13.48
2018-06-19T10:14:07.660Z,14.93
2018-06-19T10:16:36.253Z,11.02
2018-06-19T10:19:04.604Z,12.73
2018-06-19T10:21:33.737Z,14.30
2018-06-19T10:24:02.129Z,12.45
2018-06-19T10:26:31.260Z,13.35
2018-06-19T10:28:59.637Z,13.50
2018-06-19T10:31:28.078Z,12.80
2018-06-19T10:33:56.458Z,15.38
2018-06-19T10:36:24.797Z,14.65
2018-06-19T10:38:54.252Z,17.50
2018-06-19T10:41:22.591Z,16.42
2018-06-19T10:43:50.954Z,15.80
2018-06-19T10:46:20.077Z,17.50
2018-06-19T10:48:48.542Z,20.20
2018-06-19T10:51:16.904Z,20.60
2018-06-19T10:53:45.309Z,19.90
2018-06-19T10:56:13.710Z,21.02
2018-06-19T10:58:42.066Z,20.00
2018-06-19T11:01:10.424Z,22.58
2018-06-19T11:03:38.813Z,19.25
2018-06-19T11:06:07.186Z,19.10
2018-06-19T11:08:36.313Z,19.70
2018-06-19T11:11:04.708Z,20.45
2018-06-19T11:13:33.101Z,18.00
2018-06-19T11:16:01.481Z,17.05
2018-06-19T11:18:29.862Z,18.27
2018-06-19T11:20:58.256Z,17.05
2018-06-19T11:23:26.629Z,14.70
2018-06-19T11:25:55.082Z,17.85
2018-06-19T11:28:23.472Z,16.80
2018-06-19T11:30:51.817Z,19.65
2018-06-19T11:33:20.182Z,14.87
2018-06-19T11:35:49.302Z,13.10
2018-06-19T11:38:17.665Z,14.30
2018-06-19T11:40:46.024Z,13.43
2018-06-19T11:43:14.673Z,14.80
2018-06-19T11:45:43.056Z,17.27
2018-06-19T11:48:11.535Z,14.15
2018-06-19T11:50:39.921Z,12.48
2018-06-19T11:53:08.289Z,11.38
2018-06-19T11:55:36.821Z,10.30
2018-06-19T11:58:05.198Z,11.10
2018-06-19T12:00:34.450Z,9.65
2018-06-19T12:03:02.829Z,8.68
2018-06-19T12:05:31.183Z,8.80
2018-06-19T12:08:00.501Z,9.48
2018-06-19T12:10:28.843Z,9.88
2018-06-19T12:12:57.951Z,10.40
2018-06-19T12:15:27.547Z,9.48
2018-06-19T12:17:56.596Z,9.48
2018-06-19T12:20:25.958Z,9.45
2018-06-19T12:22:54.567Z,10.65
2018-06-19T12:25:22.974Z,11.50
2018-06-19T12:27:51.841Z,11.95
2018-06-19T12:30:20.215Z,11.73
2018-06-19T12:32:48.603Z,13.15
2018-06-19T12:35:16.984Z,12.80
2018-06-19T12:37:45.344Z,11.48
2018-06-19T12:40:13.735Z,13.32
2018-06-19T12:42:42.302Z,10.40
2018-06-19T12:45:11.492Z,10.52
2018-06-19T12:47:40.718Z,10.23
2018-06-19T12:53:21.949Z,13.30
2018-06-19T12:58:53.241Z,13.30
2018-06-19T13:01:22.417Z,15.98
2018-06-19T13:04:02.716Z,14.68
2018-06-19T13:06:31.836Z,15.82
2018-06-19T13:09:00.215Z,14.93
2018-06-19T13:11:28.586Z,15.23
2018-06-19T13:20:16.654Z,14.70
2018-06-19T13:22:45.043Z,16.92
2018-06-19T13:25:13.417Z,15.55
2018-06-19T13:27:41.925Z,17.05
2018-06-19T13:30:22.097Z,14.77
2018-06-19T13:32:50.458Z,13.60
2018-06-19T13:35:18.852Z,14.30
2018-06-19T13:37:47.218Z,16.33
2018-06-19T13:43:34.033Z,15.37
2018-06-19T13:46:02.398Z,12.80
2018-06-19T13:48:30.778Z,13.75
2018-06-19T13:50:59.203Z,12.52
2018-06-19T13:53:27.625Z,12.95
2018-06-19T13:56:08.541Z,15.57
2018-06-19T13:58:36.900Z,15.85
2018-06-19T14:01:05.825Z,15.35
2018-06-19T14:03:34.154Z,12.68
2018-06-19T14:06:02.901Z,15.48
2018-06-19T14:08:31.238Z,15.45
2018-06-19T14:14:18.895Z,15.43
2018-06-19T14:16:47.345Z,16.77
2018-06-19T14:19:15.774Z,14.20
2018-06-19T14:21:44.957Z,16.80
2018-06-19T14:24:13.303Z,15.07
2018-06-19T14:26:42.442Z,16.77
2018-06-19T14:29:10.803Z,15.45
2018-06-19T14:31:39.210Z,14.87
2018-06-19T14:34:07.707Z,16.33
2018-06-19T14:36:36.057Z,15.63
2018-06-19T14:39:05.582Z,15.63
2018-06-19T14:41:35.702Z,16.30
2018-06-19T14:44:04.078Z,20.88
2018-06-19T14:46:32.431Z,16.20
2018-06-19T14:49:00.802Z,17.23
2018-06-19T14:54:04.018Z,15.30
2018-06-19T14:56:32.426Z,13.45
2018-06-19T14:59:00.782Z,15.48
2018-06-19T15:01:29.189Z,16.35
2018-06-19T15:03:58.838Z,16.08
2018-06-19T15:06:27.254Z,14.60
2018-06-19T15:08:55.671Z,17.80
2018-06-19T15:11:24.134Z,14.48
2018-06-19T15:13:52.699Z,12.77
2018-06-19T15:16:21.066Z,15.90
2018-06-19T15:18:49.445Z,14.15
2018-06-19T15:21:21.025Z,12.37
2018-06-19T15:23:49.505Z,12.32
2018-06-19T15:26:18.008Z,12.02
2018-06-19T15:28:46.379Z,14.57
2018-06-19T15:31:14.860Z,11.50
2018-06-19T15:33:43.243Z,11.35
2018-06-19T15:36:11.714Z,16.92
2018-06-19T15:38:40.206Z,12.07
2018-06-19T15:41:08.572Z,11.60
2018-06-19T15:43:36.941Z,12.05
2018-06-19T15:46:05.320Z,11.45
2018-06-19T15:48:33.674Z,11.52
2018-06-19T15:51:02.185Z,10.90
2018-06-19T15:53:30.606Z,9.68
2018-06-19T15:55:59.017Z,9.98
2018-06-19T15:58:27.362Z,9.55
2018-06-19T16:00:56.361Z,10.10
2018-06-19T16:03:24.717Z,12.80
2018-06-19T16:05:53.095Z,10.85
2018-06-19T16:08:21.613Z,13.98
2018-06-19T16:10:50.100Z,11.52
2018-06-19T16:13:19.254Z,12.55
2018-06-19T16:15:47.729Z,11.88
2018-06-19T16:18:16.099Z,10.93
2018-06-19T16:20:44.457Z,11.00
2018-06-19T16:23:12.834Z,15.77
2018-06-19T16:25:41.878Z,11.55
2018-06-19T16:28:11.121Z,14.07
2018-06-19T16:30:39.903Z,11.20
2018-06-19T16:33:08.250Z,11.70
2018-06-19T16:35:36.711Z,12.52
2018-06-19T16:38:05.082Z,12.65
2018-06-19T16:40:33.588Z,15.25
2018-06-19T16:43:02.035Z,13.45
2018-06-19T16:45:30.526Z,14.82
2018-06-19T16:47:58.905Z,13.48
2018-06-19T16:50:27.282Z,12.75
2018-06-19T16:52:55.681Z,12.13
2018-06-19T16:55:24.157Z,12.95
2018-06-19T16:57:53.414Z,15.65
2018-06-19T17:00:23.242Z,13.25
2018-06-19T17:02:51.642Z,16.92
2018-06-19T17:05:20.050Z,16.58
2018-06-19T17:07:48.481Z,18.10
2018-06-19T17:10:17.711Z,16.87
2018-06-19T17:12:46.073Z,14.80
2018-06-19T17:15:14.454Z,14.05
2018-06-19T17:17:42.821Z,17.83
2018-06-19T17:20:11.280Z,15.63
2018-06-19T17:22:40.425Z,15.98
2018-06-19T17:25:08.903Z,16.40
2018-06-19T17:27:37.393Z,19.45
2018-06-19T17:30:06.039Z,17.65
2018-06-19T17:32:34.471Z,19.10
2018-06-19T17:35:02.863Z,16.50
2018-06-19T17:37:31.483Z,19.75
2018-06-19T17:39:59.869Z,17.70
2018-06-19T17:42:28.266Z,18.80
2018-06-19T17:44:57.281Z,18.10
2018-06-19T17:47:25.663Z,18.75
2018-06-19T17:49:54.040Z,15.65
2018-06-19T17:52:22.476Z,15.95
2018-06-19T17:54:50.826Z,36.92
2018-06-19T17:57:19.384Z,16.23
2018-06-19T17:59:48.205Z,16.17
2018-06-19T18:02:17.338Z,23.42
2018-06-19T18:04:45.693Z,21.58
2018-06-19T18:07:14.311Z,18.27
2018-06-19T18:09:43.722Z,15.50
2018-06-19T18:12:12.102Z,19.98
2018-06-19T18:14:40.501Z,18.95
2018-06-19T18:17:08.873Z,17.37
2018-06-19T18:19:37.356Z,19.98
2018-06-19T18:22:05.745Z,16.42
2018-06-19T18:24:34.918Z,21.02
2018-06-19T18:27:03.350Z,21.33
2018-06-19T18:29:32.493Z,19.87
2018-06-19T18:32:00.859Z,21.03
2018-06-19T18:34:29.230Z,22.43
2018-06-19T18:36:57.612Z,24.27
2018-06-19T18:39:26.033Z,25.97
2018-06-19T18:41:54.681Z,26.10
2018-06-19T18:44:23.934Z,26.17
2018-06-19T18:46:52.464Z,28.87
2018-06-19T18:49:20.750Z,26.10
2018-06-19T18:51:49.160Z,31.40
2018-06-19T18:54:17.534Z,26.47
2018-06-19T18:56:45.922Z,30.00
2018-06-19T18:59:15.291Z,25.63
2018-06-19T19:01:43.669Z,27.23
2018-06-19T19:04:12.031Z,28.10
2018-06-19T19:06:40.393Z,27.53
2018-06-19T19:09:09.540Z,25.13
2018-06-19T19:11:37.919Z,28.87
2018-06-19T19:14:06.365Z,27.97
2018-06-19T19:19:33.484Z,26.47
2018-06-19T19:22:01.844Z,29.57
2018-06-19T19:24:30.229Z,24.47
2018-06-19T19:26:58.623Z,30.00
2018-06-19T19:32:19.550Z,26.57
2018-06-19T19:34:47.915Z,23.60
2018-06-19T19:40:11.202Z,25.23
2018-06-19T19:42:39.552Z,25.57
2018-06-19T19:45:07.927Z,24.67
2018-06-19T19:50:36.844Z,26.23
2018-06-19T19:53:05.181Z,21.27
2018-06-19T19:55:33.604Z,24.63
2018-06-19T20:00:56.905Z,23.37
2018-06-19T20:03:25.304Z,20.07
2018-06-19T20:05:53.908Z,20.67
2018-06-19T20:08:22.355Z,22.90
2018-06-19T20:10:50.721Z,21.53
2018-06-19T20:13:19.119Z,20.90
2018-06-19T20:15:47.518Z,18.20
2018-06-19T20:18:15.980Z,18.43
2018-06-19T20:20:44.418Z,21.10
2018-06-19T20:23:14.647Z,18.17
2018-06-19T20:25:42.987Z,21.20
2018-06-19T20:28:11.440Z,20.77
2018-06-19T20:30:39.817Z,23.43
2018-06-19T20:33:08.269Z,22.40
2018-06-19T20:35:36.707Z,21.57
2018-06-19T20:38:06.198Z,20.50
2018-06-19T20:40:34.576Z,21.13
2018-06-19T20:43:02.938Z,22.30
2018-06-19T20:45:31.341Z,24.70
2018-06-19T20:47:59.787Z,24.70
2018-06-19T20:50:28.403Z,25.63
2018-06-19T20:52:56.870Z,22.27
2018-06-19T20:55:25.270Z,25.63
2018-06-19T20:57:53.637Z,25.63
2018-06-19T21:00:22.036Z,22.87
2018-06-19T21:02:50.507Z,25.03
2018-06-19T21:05:18.860Z,24.33
2018-06-19T21:07:47.275Z,26.23
2018-06-19T21:10:15.593Z,23.40
2018-06-19T21:12:44.096Z,24.13
2018-06-19T21:15:12.481Z,24.67
2018-06-19T21:17:40.974Z,26.37
2018-06-19T21:20:09.368Z,25.60
2018-06-19T21:22:37.709Z,26.17
2018-06-19T21:25:06.065Z,25.93
2018-06-19T21:27:35.195Z,25.40
2018-06-19T21:30:03.601Z,26.77
2018-06-19T21:32:32.661Z,24.60
2018-06-19T21:35:01.013Z,26.43
2018-06-19T21:37:30.139Z,23.70
2018-06-19T21:39:59.350Z,24.80
2018-06-19T21:42:27.710Z,24.80
2018-06-19T21:44:56.064Z,27.10
2018-06-19T21:47:24.604Z,25.60
2018-06-19T21:49:52.945Z,24.93
2018-06-19T21:52:21.330Z,26.27
2018-06-19T21:54:50.633Z,23.97
2018-06-19T21:57:19.026Z,23.70
2018-06-19T21:59:47.395Z,23.03
2018-06-19T22:02:15.746Z,22.63
2018-06-19T22:04:44.943Z,26.20
2018-06-19T22:07:14.062Z,25.13
2018-06-19T22:09:42.418Z,21.40
2018-06-19T22:12:11.582Z,25.73
2018-06-19T22:14:40.154Z,27.37
2018-06-19T22:17:08.536Z,22.23
2018-06-19T22:19:36.978Z,24.53
2018-06-19T22:22:05.598Z,23.53
2018-06-19T22:24:34.028Z,24.07
2018-06-19T22:27:02.448Z,23.97
2018-06-19T22:29:30.855Z,20.83
2018-06-19T22:31:59.201Z,20.90
2018-06-19T22:34:27.561Z,21.70
2018-06-19T22:36:55.933Z,21.47
2018-06-19T22:39:25.081Z,21.37
2018-06-19T22:41:53.451Z,21.97
2018-06-19T22:44:21.907Z,20.33
2018-06-19T22:46:50.263Z,19.87
2018-06-19T22:49:18.631Z,20.60
2018-06-19T22:51:47.100Z,21.90
2018-06-19T22:54:15.538Z,24.47
2018-06-19T22:56:43.890Z,20.07
2018-06-19T22:59:13.041Z,25.73
2018-06-19T23:01:41.513Z,20.73
2018-06-19T23:04:09.907Z,20.13
2018-06-19T23:06:38.329Z,20.00
2018-06-19T23:09:06.735Z,18.73
2018-06-19T23:11:36.009Z,17.43
2018-06-19T23:14:05.175Z,20.07
2018-06-19T23:16:33.558Z,19.10
2018-06-19T23:19:01.914Z,18.03
2018-06-19T23:21:30.259Z,17.97
2018-06-19T23:23:58.753Z,18.10
2018-06-19T23:26:27.105Z,18.00
2018-06-19T23:28:55.459Z,17.77
2018-06-19T23:31:24.154Z,13.03
2018-06-19T23:33:52.699Z,17.00
2018-06-19T23:36:21.033Z,15.47
2018-06-19T23:38:49.663Z,15.03
2018-06-19T23:41:18.128Z,13.40
2018-06-19T23:43:47.217Z,14.13
2018-06-19T23:46:15.571Z,16.10
2018-06-19T23:48:43.975Z,13.67
2018-06-19T23:51:12.458Z,13.20
2018-06-19T23:53:41.149Z,14.93
2018-06-19T23:56:09.495Z,15.37
2018-06-19T23:58:37.938Z,14.63
